Hallettsville, Texas
Current Conditions -  °F | °C
As of 5:55 PM on Saturday 25 Oct 2014 (Local Time) from K66R Reporting Station
Clear Clear  
Wind Chill: 83°   Ceiling: Unl
Heat Index: 84°   Visibility: 10mi
Dew Point: 62°   Wind: 3mph
Humidity: 48%   Direction: 100°E
Pressure: 30.08"   Gusts: NA
Location:  29.44°N, 96.94°W
Report Text: K66R 252255Z AUTO 10003KT 10SM CLR 29/17 A3008 RMK AO2 T02850165
Loading
Personal Weather Stations






























Interactive Weather Map
Tropical Storm Tracking
New forecast layout! Learn more

10-Day Weather Forecast

Advertisements
Track Severe Weather on mobile